createdAt,value
2017-08-12T00:00:02.788Z,13.3
2017-08-12T00:15:03.454Z,13.2
2017-08-12T00:30:03.118Z,13.2
2017-08-12T00:45:02.792Z,13.1
2017-08-12T01:00:03.408Z,13.1
2017-08-12T01:15:03.186Z,13.2
2017-08-12T01:30:02.855Z,13.1
2017-08-12T01:45:03.559Z,13.1
2017-08-12T02:00:03.258Z,13.1
2017-08-12T02:15:02.892Z,13
2017-08-12T02:30:02.567Z,13
2017-08-12T02:45:03.231Z,12.9
2017-08-12T03:00:02.997Z,13
2017-08-12T03:15:02.631Z,12.9
2017-08-12T03:30:03.313Z,13
2017-08-12T03:45:02.905Z,12.9
2017-08-12T04:00:03.769Z,12.9
2017-08-12T04:15:03.362Z,12.8
2017-08-12T04:30:03.302Z,12.7
2017-08-12T04:45:02.916Z,12.8
2017-08-12T05:00:16.818Z,13
2017-08-12T05:15:03.434Z,13.1
2017-08-12T05:30:03.148Z,13.2
2017-08-12T05:45:02.837Z,13.4
2017-08-12T06:00:03.455Z,13.4
2017-08-12T06:15:03.163Z,13.5
2017-08-12T06:30:02.978Z,13.8
2017-08-12T06:45:02.621Z,14.1
2017-08-12T07:00:03.484Z,14.2
2017-08-12T07:15:03.124Z,14.2
2017-08-12T07:30:02.813Z,14.6
2017-08-12T07:45:03.557Z,15
2017-08-12T08:00:03.122Z,14.4
2017-08-12T08:15:02.811Z,14.6
2017-08-12T08:30:03.580Z,14.6
2017-08-12T08:45:03.168Z,14.1
2017-08-12T09:00:02.887Z,14.1
2017-08-12T09:15:03.455Z,13.8
2017-08-12T09:30:03.155Z,13.9
2017-08-12T09:45:02.855Z,14.9
2017-08-12T10:00:03.469Z,15.6
2017-08-12T10:15:03.031Z,16
2017-08-12T10:30:02.710Z,17.1
2017-08-12T10:45:03.306Z,17.1
2017-08-12T11:00:02.948Z,17.9
2017-08-12T11:15:02.536Z,18.4
2017-08-12T11:30:04.366Z,19.1
2017-08-12T11:45:03.131Z,19.8
2017-08-12T12:00:02.720Z,20.3
2017-08-12T12:15:03.405Z,19.6
2017-08-12T12:30:04.195Z,18.8
2017-08-12T12:45:02.824Z,19.6
2017-08-12T13:00:03.480Z,18.1
2017-08-12T13:15:03.116Z,18.4
2017-08-12T13:30:02.852Z,18.6
2017-08-12T13:45:03.512Z,18.8
2017-08-12T14:00:03.276Z,19
2017-08-12T14:15:28.267Z,19.1
2017-08-12T14:30:02.961Z,19.4
2017-08-12T14:45:02.622Z,18.9
2017-08-12T15:00:03.183Z,18.7
2017-08-12T15:15:03.355Z,18.1
2017-08-12T15:45:02.708Z,18.3
2017-08-12T16:00:03.289Z,18.1
2017-08-12T16:15:03.048Z,18.4
2017-08-12T16:30:02.727Z,18.2
2017-08-12T16:45:03.292Z,18.1
2017-08-12T17:00:02.880Z,18
2017-08-12T17:15:03.522Z,17.8
2017-08-12T17:30:03.244Z,17.7
2017-08-12T17:45:02.942Z,17.5
2017-08-12T18:00:02.623Z,17.2
2017-08-12T18:15:03.342Z,16.9
2017-08-12T18:30:03.307Z,16.6
2017-08-12T18:45:02.956Z,16.4
2017-08-12T19:00:02.511Z,16.1
2017-08-12T19:15:03.197Z,15.8
2017-08-12T19:30:02.807Z,15.4
2017-08-12T19:45:03.407Z,15.1
2017-08-12T20:00:03.025Z,15.1
2017-08-12T20:15:02.615Z,15
2017-08-12T20:30:03.382Z,15.1
2017-08-12T20:45:03.025Z,15.1
2017-08-12T21:00:02.620Z,15.1
2017-08-12T21:15:04.059Z,14.8
2017-08-12T21:30:02.786Z,15
2017-08-12T21:45:03.397Z,15.3
2017-08-12T22:00:03.100Z,15.4
2017-08-12T22:15:02.710Z,15.3
2017-08-12T22:30:03.615Z,15.2
2017-08-12T22:45:03.239Z,15.3
2017-08-12T23:00:03.025Z,15.4
2017-08-12T23:15:02.579Z,15.4
2017-08-12T23:30:03.299Z,15.2
2017-08-12T23:45:03.036Z,15.2
